Aérodrome :
LOGIN :

S'inscrire | Disclaimer

   EN    FR    IT 

 










Légende :    VFR   VFR Marginal   IFR   IFR Intensif   IFR Très Intensif
Visi : 
Plafond : 
>= 8 km
>= 3000ft
5 à 8 km
1000 à 3000 ft
1500m à 5 km
500 à 1000 ft
800 à 1500m
200 à 500 ft
< 800m
< 200 ft
Symboles :   Orages  Brouillard  Fortes neiges  Fortes précipitations  Vent > 20 kt
SIGMETs :   Divers  Orages  Givrage  Turbulence  Onde Orograph.  Cendres Volcan.







- Altitude de l'aérodrome : 302 ft
- Code IATA : CGN


EDDK - Cologne Bonn

DERNIER METAR :
  • 211750Z 09005KT 070V140 CAVOK 20/05 Q1015 NOSIG

METARs EXPIRÉS :
  • 211720Z 10005KT 070V140 CAVOK 21/05 Q1015 NOSIG
  • 211650Z 10006KT 060V130 CAVOK 22/05 Q1015 NOSIG
  • 211620Z 13007KT 100V160 CAVOK 23/04 Q1015 NOSIG
  • 211550Z 13008KT CAVOK 24/04 Q1016 NOSIG
  • 211520Z 13008KT 080V160 CAVOK 24/04 Q1016 NOSIG

TAF TAF EDDK
Valide du 21 à 18h jusqu'au 23 à 00h UTC


211700Z 2118/2224 12007KT CAVOK
PROB30
TEMPO 2220/2222 TSRA BKN030CB
BECMG 2222/2224 RA
Pas de NOTAMs connus pour ce terrain.



MET'MAP, la Météo Aéronautique d'un coup d'oeil ! - Copyright ORBIFLY Décembre 2007 - Disclaimer

ORBIFLY MET'MAP TEAM :

Programmation & Développement : Alexandra Zaïnal
Conception & Développement : Baudouin d'Aumeries
Co-Programmation & Développement : Marc-Olivier Méhu
Soutien technique & logistique : Manuel Goepfert

Contact : metmap@orbifly.com




SOURCES & CREDITS :

   NOAA